Norient Star — 9HRV9 — position and weather

sailwx.info

Track history (hours):
 
Tides and Currents Weather Stations Pressure Air Temp Water Temp Dewpoint Dewpoint Depression Visibility Wind Speed Wind Dir Waves Ship Positions

Norient Star

Last reported at 2014-Aug-31 23:15 UTC. Time now 2014-Sep-01 11:45 UTC.
Position N 57°49' E 010°08'.

Length 180 m; draft 10.5 m.

Type: Ship. MMSI: 249434000.

Date/timePositionNaut miles runAvg speedWind from/ knotsBaromVisibWave heightAir tempDewpointWater temp
2014-Aug-31 23:15N 57°49' E 010°08'812.3
2014-Aug-31 22:34N 57°49' E 010°24'1212.4
2014-Aug-31 21:34N 57°49' E 010°47'1212.4
2014-Aug-31 20:33N 57°40' E 011°03'1312.6
2014-Aug-31 19:34N 57°31' E 011°20'1212.2
2014-Aug-31 18:33N 57°21' E 011°31'1312.6
2014-Aug-31 17:33N 57°09' E 011°40'1312.6
2014-Aug-31 16:33N 56°57' E 011°47'1212.2
2014-Aug-31 15:33N 56°45' E 011°54'135 9.7
2014-Aug-31 01:33N 54°31' E 011°31'1612.3
2014-Aug-31 00:15N 54°26' E 011°57'811.8
2014-Aug-30 23:33N 54°27' E 012°11'1010.3
2014-Aug-30 22:33N 54°37' E 012°18'1212.0
2014-Aug-30 21:31N 54°44' E 012°36'1212.0
2014-Aug-30 20:33N 54°49' E 012°53'1211.9
2014-Aug-30 19:33N 54°54' E 013°13'1212.0
2014-Aug-30 18:33N 54°58' E 013°32'1212.2
2014-Aug-30 17:33N 55°02' E 013°52'1211.6
2014-Aug-30 16:33N 55°08' E 014°09'1212.5
2014-Aug-30 15:33N 55°18' E 014°23'1212.2
2014-Aug-30 14:33N 55°27' E 014°37'1212.4
2014-Aug-30 13:33N 55°33' E 014°57'1312.6
2014-Aug-30 12:32N 55°39' E 015°17'10012.5
2014-Aug-30 04:32N 56°08' E 018°08'1312.5
2014-Aug-30 03:29N 56°14' E 018°27'3812.3
2014-Aug-30 00:26N 56°44' E 019°09'20912.2
2014-Aug-29 07:20N 59°35' E 022°59'1012.4
2014-Aug-29 06:33N 59°37' E 023°17'1312.5
2014-Aug-29 05:32N 59°41' E 023°41'1212.2
2014-Aug-29 04:33N 59°44' E 024°04'2512.4
2014-Aug-29 02:33N 59°49' E 024°52'1312.3
2014-Aug-29 01:32N 59°52' E 025°17'1312.5
2014-Aug-29 00:32N 59°54' E 025°41'1313.0
2014-Aug-28 23:33N 59°58' E 026°06'1312.5
2014-Aug-28 22:33N 60°01' E 026°30'1212.3
2014-Aug-28 21:33N 59°60' E 026°54'1212.0
2014-Aug-28 20:31N 60°04' E 027°18'22 0.5
2014-Aug-27 04:32N 59°59' E 026°35'4911.7
2014-Aug-27 00:22N 59°47' E 025°01'1011.9
2014-Aug-26 23:33N 59°45' E 024°42'1312.0
2014-Aug-26 22:30N 59°43' E 024°18'2411.9
2014-Aug-26 20:29N 59°35' E 023°33'1111.4
2014-Aug-26 19:33N 59°31' E 023°13'34411.4
2014-Aug-25 13:19N 55°37' E 015°23'1013.0
2014-Aug-25 12:33N 55°32' E 015°08'1312.8
2014-Aug-25 11:33N 55°26' E 014°48'1212.3
2014-Aug-25 10:33N 55°18' E 014°31'4212.7
2014-Aug-25 07:13N 55°13' E 013°18'914.3
2014-Aug-25 06:34N 55°14' E 013°01'1313.0
2014-Aug-25 05:34N 55°18' E 012°39'1212.3
2014-Aug-25 04:33N 55°30' E 012°42'1111.1
2014-Aug-25 03:34N 55°41' E 012°41'1212.2
2014-Aug-25 02:34N 55°53' E 012°40'1211.9
2014-Aug-25 01:33N 56°05' E 012°35'1211.6
2014-Aug-25 00:33N 56°12' E 012°18'1312.6
2014-Aug-24 23:33N 56°21' E 012°02'6013.7
2014-Aug-24 19:12N 57°18' E 011°31'913.6
2014-Aug-24 18:33N 57°26' E 011°25'1413.6
2014-Aug-24 17:33N 57°36' E 011°07'1414.1
2014-Aug-24 16:33N 57°46' E 010°48'1313.4
2014-Aug-24 15:33N 57°48' E 010°23'13211.7
2014-Aug-24 04:18N 56°17' E 007°27'811.2
2014-Aug-24 03:33N 56°10' E 007°21'1211.5
2014-Aug-24 02:33N 55°60' E 007°12'1311.6
2014-Aug-24 01:24N 55°47' E 007°02'1011.7
2014-Aug-24 00:33N 55°38' E 006°57'1211.9
2014-Aug-23 23:33N 55°27' E 006°50'1111.4
2014-Aug-23 22:33N 55°16' E 006°53'1211.7
2014-Aug-23 21:33N 55°05' E 007°00'1211.6
2014-Aug-23 20:33N 54°53' E 007°06'1211.7
2014-Aug-23 19:33N 54°42' E 007°13'120 7.5
2014-Aug-23 03:26N 53°30' E 009°57'0 0.0
2014-Aug-23 02:32N 53°30' E 009°57'0 0.0
2014-Aug-23 01:32N 53°30' E 009°57'0 0.0
2014-Aug-23 00:26N 53°30' E 009°57'0 0.0
2014-Aug-22 23:32N 53°30' E 009°57'0 0.0
2014-Aug-22 22:32N 53°30' E 009°57'0 0.0
2014-Aug-22 21:23N 53°30' E 009°57'0 0.0
2014-Aug-22 20:32N 53°30' E 009°57'0 0.0
2014-Aug-22 19:32N 53°30' E 009°57'0 0.0
2014-Aug-22 18:32N 53°30' E 009°57'0 0.0
2014-Aug-22 17:32N 53°30' E 009°57'0 0.0
2014-Aug-22 16:29N 53°30' E 009°57'0 0.0
2014-Aug-22 15:29N 53°30' E 009°57'0 0.0
2014-Aug-22 14:32N 53°30' E 009°57'0 0.0
2014-Aug-22 13:32N 53°30' E 009°57'0 0.0
2014-Aug-22 12:31N 53°30' E 009°57'0 0.0
2014-Aug-22 11:25N 53°30' E 009°57'0 0.0
2014-Aug-22 10:31N 53°30' E 009°57'0 0.0
2014-Aug-22 09:32N 53°30' E 009°57'0 0.0
2014-Aug-22 08:31N 53°30' E 009°57'0 0.0
2014-Aug-22 07:28N 53°30' E 009°57'0 0.0
2014-Aug-22 06:31N 53°30' E 009°57'0 0.0
2014-Aug-22 05:22N 53°30' E 009°57'0 0.0
2014-Aug-22 04:31N 53°30' E 009°57'0 0.0
2014-Aug-22 03:28N 53°30' E 009°57'0 0.0
2014-Aug-22 02:28N 53°30' E 009°57'0 0.0
2014-Aug-22 01:31N 53°30' E 009°57'0 0.0
2014-Aug-22 00:33N 53°30' E 009°57'3 3.4
2014-Aug-21 23:33N 53°32' E 009°53'  
Track history (hours):
 
Tides and Currents Weather Stations Pressure Air Temp Water Temp Dewpoint Dewpoint Depression Visibility Wind Speed Wind Dir Waves Ship Positions

Norient Star

Last reported at 2014-Aug-31 23:15 UTC. Time now 2014-Sep-01 11:45 UTC.
Position N 57°49' E 010°08'.

Length 180 m; draft 10.5 m.

Type: Ship. MMSI: 249434000.

Date/timePositionNaut miles runAvg speedWind from/ knotsBaromVisibWave heightAir tempDewpointWater temp
2014-Aug-31 23:15N 57°49' E 010°08'812.3
2014-Aug-31 22:34N 57°49' E 010°24'1212.4
2014-Aug-31 21:34N 57°49' E 010°47'1212.4
2014-Aug-31 20:33N 57°40' E 011°03'1312.6
2014-Aug-31 19:34N 57°31' E 011°20'1212.2
2014-Aug-31 18:33N 57°21' E 011°31'1312.6
2014-Aug-31 17:33N 57°09' E 011°40'1312.6
2014-Aug-31 16:33N 56°57' E 011°47'1212.2
2014-Aug-31 15:33N 56°45' E 011°54'135 9.7
2014-Aug-31 01:33N 54°31' E 011°31'1612.3
2014-Aug-31 00:15N 54°26' E 011°57'811.8
2014-Aug-30 23:33N 54°27' E 012°11'1010.3
2014-Aug-30 22:33N 54°37' E 012°18'1212.0
2014-Aug-30 21:31N 54°44' E 012°36'1212.0
2014-Aug-30 20:33N 54°49' E 012°53'1211.9
2014-Aug-30 19:33N 54°54' E 013°13'1212.0
2014-Aug-30 18:33N 54°58' E 013°32'1212.2
2014-Aug-30 17:33N 55°02' E 013°52'1211.6
2014-Aug-30 16:33N 55°08' E 014°09'1212.5
2014-Aug-30 15:33N 55°18' E 014°23'1212.2
2014-Aug-30 14:33N 55°27' E 014°37'1212.4
2014-Aug-30 13:33N 55°33' E 014°57'1312.6
2014-Aug-30 12:32N 55°39' E 015°17'10012.5
2014-Aug-30 04:32N 56°08' E 018°08'1312.5
2014-Aug-30 03:29N 56°14' E 018°27'3812.3
2014-Aug-30 00:26N 56°44' E 019°09'20912.2
2014-Aug-29 07:20N 59°35' E 022°59'1012.4
2014-Aug-29 06:33N 59°37' E 023°17'1312.5
2014-Aug-29 05:32N 59°41' E 023°41'1212.2
2014-Aug-29 04:33N 59°44' E 024°04'2512.4
2014-Aug-29 02:33N 59°49' E 024°52'1312.3
2014-Aug-29 01:32N 59°52' E 025°17'1312.5
2014-Aug-29 00:32N 59°54' E 025°41'1313.0
2014-Aug-28 23:33N 59°58' E 026°06'1312.5
2014-Aug-28 22:33N 60°01' E 026°30'1212.3
2014-Aug-28 21:33N 59°60' E 026°54'1212.0
2014-Aug-28 20:31N 60°04' E 027°18'22 0.5
2014-Aug-27 04:32N 59°59' E 026°35'4911.7
2014-Aug-27 00:22N 59°47' E 025°01'1011.9
2014-Aug-26 23:33N 59°45' E 024°42'1312.0
2014-Aug-26 22:30N 59°43' E 024°18'2411.9
2014-Aug-26 20:29N 59°35' E 023°33'1111.4
2014-Aug-26 19:33N 59°31' E 023°13'34411.4
2014-Aug-25 13:19N 55°37' E 015°23'1013.0
2014-Aug-25 12:33N 55°32' E 015°08'1312.8
2014-Aug-25 11:33N 55°26' E 014°48'1212.3
2014-Aug-25 10:33N 55°18' E 014°31'4212.7
2014-Aug-25 07:13N 55°13' E 013°18'914.3
2014-Aug-25 06:34N 55°14' E 013°01'1313.0
2014-Aug-25 05:34N 55°18' E 012°39'1212.3
2014-Aug-25 04:33N 55°30' E 012°42'1111.1
2014-Aug-25 03:34N 55°41' E 012°41'1212.2
2014-Aug-25 02:34N 55°53' E 012°40'1211.9
2014-Aug-25 01:33N 56°05' E 012°35'1211.6
2014-Aug-25 00:33N 56°12' E 012°18'1312.6
2014-Aug-24 23:33N 56°21' E 012°02'6013.7
2014-Aug-24 19:12N 57°18' E 011°31'913.6
2014-Aug-24 18:33N 57°26' E 011°25'1413.6
2014-Aug-24 17:33N 57°36' E 011°07'1414.1
2014-Aug-24 16:33N 57°46' E 010°48'1313.4
2014-Aug-24 15:33N 57°48' E 010°23'13211.7
2014-Aug-24 04:18N 56°17' E 007°27'811.2
2014-Aug-24 03:33N 56°10' E 007°21'1211.5
2014-Aug-24 02:33N 55°60' E 007°12'1311.6
2014-Aug-24 01:24N 55°47' E 007°02'1011.7
2014-Aug-24 00:33N 55°38' E 006°57'1211.9
2014-Aug-23 23:33N 55°27' E 006°50'1111.4
2014-Aug-23 22:33N 55°16' E 006°53'1211.7
2014-Aug-23 21:33N 55°05' E 007°00'1211.6
2014-Aug-23 20:33N 54°53' E 007°06'1211.7
2014-Aug-23 19:33N 54°42' E 007°13'120 7.5
2014-Aug-23 03:26N 53°30' E 009°57'0 0.0
2014-Aug-23 02:32N 53°30' E 009°57'0 0.0
2014-Aug-23 01:32N 53°30' E 009°57'0 0.0
2014-Aug-23 00:26N 53°30' E 009°57'0 0.0
2014-Aug-22 23:32N 53°30' E 009°57'0 0.0
2014-Aug-22 22:32N 53°30' E 009°57'0 0.0
2014-Aug-22 21:23N 53°30' E 009°57'0 0.0
2014-Aug-22 20:32N 53°30' E 009°57'0 0.0
2014-Aug-22 19:32N 53°30' E 009°57'0 0.0
2014-Aug-22 18:32N 53°30' E 009°57'0 0.0
2014-Aug-22 17:32N 53°30' E 009°57'0 0.0
2014-Aug-22 16:29N 53°30' E 009°57'0 0.0
2014-Aug-22 15:29N 53°30' E 009°57'0 0.0
2014-Aug-22 14:32N 53°30' E 009°57'0 0.0
2014-Aug-22 13:32N 53°30' E 009°57'0 0.0
2014-Aug-22 12:31N 53°30' E 009°57'0 0.0
2014-Aug-22 11:25N 53°30' E 009°57'0 0.0
2014-Aug-22 10:31N 53°30' E 009°57'0 0.0
2014-Aug-22 09:32N 53°30' E 009°57'0 0.0
2014-Aug-22 08:31N 53°30' E 009°57'0 0.0
2014-Aug-22 07:28N 53°30' E 009°57'0 0.0
2014-Aug-22 06:31N 53°30' E 009°57'0 0.0
2014-Aug-22 05:22N 53°30' E 009°57'0 0.0
2014-Aug-22 04:31N 53°30' E 009°57'0 0.0
2014-Aug-22 03:28N 53°30' E 009°57'0 0.0
2014-Aug-22 02:28N 53°30' E 009°57'0 0.0
2014-Aug-22 01:31N 53°30' E 009°57'0 0.0
2014-Aug-22 00:33N 53°30' E 009°57'3 3.4
2014-Aug-21 23:33N 53°32' E 009°53'  

Dump ship's entire track history